sensor_id;sensor_type;location;lat;lon;timestamp;P1;durP1;ratioP1;P2;durP2;ratioP2
60454;SDS011;54989;53.398;6.564;2022-09-27T00:01:04;2.05;;;0.82;;
60454;SDS011;54989;53.398;6.564;2022-09-27T00:03:34;1.20;;;0.50;;
60454;SDS011;54989;53.398;6.564;2022-09-27T00:06:06;0.68;;;0.50;;
60454;SDS011;54989;53.398;6.564;2022-09-27T00:08:34;1.67;;;1.00;;
60454;SDS011;54989;53.398;6.564;2022-09-27T00:11:03;1.40;;;0.60;;
60454;SDS011;54989;53.398;6.564;2022-09-27T00:13:33;0.98;;;0.50;;
60454;SDS011;54989;53.398;6.564;2022-09-27T00:16:01;1.08;;;0.40;;
60454;SDS011;54989;53.398;6.564;2022-09-27T00:18:32;0.65;;;0.40;;
60454;SDS011;54989;53.398;6.564;2022-09-27T00:21:05;0.80;;;0.50;;
60454;SDS011;54989;53.398;6.564;2022-09-27T00:23:34;1.00;;;0.57;;
60454;SDS011;54989;53.398;6.564;2022-09-27T00:26:02;0.75;;;0.50;;
60454;SDS011;54989;53.398;6.564;2022-09-27T00:28:30;1.85;;;0.57;;
60454;SDS011;54989;53.398;6.564;2022-09-27T00:30:59;0.95;;;0.65;;
60454;SDS011;54989;53.398;6.564;2022-09-27T00:33:27;0.55;;;0.40;;
60454;SDS011;54989;53.398;6.564;2022-09-27T00:36:01;1.27;;;0.68;;
60454;SDS011;54989;53.398;6.564;2022-09-27T00:38:30;0.68;;;0.30;;
60454;SDS011;54989;53.398;6.564;2022-09-27T00:40:58;0.95;;;0.40;;
60454;SDS011;54989;53.398;6.564;2022-09-27T00:43:29;0.88;;;0.57;;
60454;SDS011;54989;53.398;6.564;2022-09-27T00:46:27;1.00;;;0.38;;
60454;SDS011;54989;53.398;6.564;2022-09-27T00:49:11;1.05;;;0.50;;
60454;SDS011;54989;53.398;6.564;2022-09-27T00:52:01;1.38;;;0.55;;
60454;SDS011;54989;53.398;6.564;2022-09-27T00:54:33;0.93;;;0.40;;
60454;SDS011;54989;53.398;6.564;2022-09-27T00:57:04;0.55;;;0.40;;
60454;SDS011;54989;53.398;6.564;2022-09-27T00:59:33;0.82;;;0.70;;
60454;SDS011;54989;53.398;6.564;2022-09-27T01:02:07;0.85;;;0.55;;
60454;SDS011;54989;53.398;6.564;2022-09-27T01:04:35;0.73;;;0.30;;
60454;SDS011;54989;53.398;6.564;2022-09-27T01:07:04;1.27;;;0.38;;
60454;SDS011;54989;53.398;6.564;2022-09-27T01:09:32;0.55;;;0.40;;
60454;SDS011;54989;53.398;6.564;2022-09-27T01:34:17;0.63;;;0.30;;
60454;SDS011;54989;53.398;6.564;2022-09-27T01:36:51;0.30;;;0.30;;
60454;SDS011;54989;53.398;6.564;2022-09-27T01:39:54;0.82;;;0.43;;
60454;SDS011;54989;53.398;6.564;2022-09-27T01:45:06;0.98;;;0.40;;
60454;SDS011;54989;53.398;6.564;2022-09-27T01:47:17;1.20;;;0.43;;
60454;SDS011;54989;53.398;6.564;2022-09-27T01:50:13;1.00;;;0.47;;
60454;SDS011;54989;53.398;6.564;2022-09-27T01:53:07;0.60;;;0.30;;
60454;SDS011;54989;53.398;6.564;2022-09-27T01:55:59;0.88;;;0.50;;
60454;SDS011;54989;53.398;6.564;2022-09-27T01:59:07;0.45;;;0.45;;
60454;SDS011;54989;53.398;6.564;2022-09-27T02:01:46;1.85;;;0.43;;
60454;SDS011;54989;53.398;6.564;2022-09-27T02:07:14;0.50;;;0.30;;
60454;SDS011;54989;53.398;6.564;2022-09-27T02:10:32;0.88;;;0.43;;
60454;SDS011;54989;53.398;6.564;2022-09-27T02:12:56;0.60;;;0.40;;
60454;SDS011;54989;53.398;6.564;2022-09-27T02:21:37;1.25;;;0.47;;
60454;SDS011;54989;53.398;6.564;2022-09-27T02:24:18;0.40;;;0.40;;
60454;SDS011;54989;53.398;6.564;2022-09-27T02:26:53;0.57;;;0.50;;
60454;SDS011;54989;53.398;6.564;2022-09-27T02:29:38;0.40;;;0.40;;
60454;SDS011;54989;53.398;6.564;2022-09-27T02:32:12;0.30;;;0.30;;
60454;SDS011;54989;53.398;6.564;2022-09-27T02:34:39;0.68;;;0.50;;
60454;SDS011;54989;53.398;6.564;2022-09-27T02:37:09;0.77;;;0.50;;
60454;SDS011;54989;53.398;6.564;2022-09-27T02:39:37;0.95;;;0.55;;
60454;SDS011;54989;53.398;6.564;2022-09-27T02:42:06;0.75;;;0.47;;
60454;SDS011;54989;53.398;6.564;2022-09-27T02:44:35;0.98;;;0.32;;
60454;SDS011;54989;53.398;6.564;2022-09-27T03:05:26;1.95;;;0.70;;
60454;SDS011;54989;53.398;6.564;2022-09-27T03:08:01;0.93;;;0.45;;
60454;SDS011;54989;53.398;6.564;2022-09-27T03:10:29;0.70;;;0.40;;
60454;SDS011;54989;53.398;6.564;2022-09-27T03:12:57;0.93;;;0.50;;
60454;SDS011;54989;53.398;6.564;2022-09-27T03:15:24;0.70;;;0.68;;
60454;SDS011;54989;53.398;6.564;2022-09-27T03:18:01;0.75;;;0.45;;
60454;SDS011;54989;53.398;6.564;2022-09-27T03:20:47;0.65;;;0.32;;
60454;SDS011;54989;53.398;6.564;2022-09-27T03:23:17;0.88;;;0.47;;
60454;SDS011;54989;53.398;6.564;2022-09-27T03:25:45;1.30;;;0.63;;
60454;SDS011;54989;53.398;6.564;2022-09-27T03:28:12;1.00;;;0.50;;
60454;SDS011;54989;53.398;6.564;2022-09-27T03:30:43;0.93;;;0.45;;
60454;SDS011;54989;53.398;6.564;2022-09-27T03:33:27;0.65;;;0.40;;
60454;SDS011;54989;53.398;6.564;2022-09-27T03:36:00;0.52;;;0.50;;
60454;SDS011;54989;53.398;6.564;2022-09-27T03:38:29;0.75;;;0.55;;
60454;SDS011;54989;53.398;6.564;2022-09-27T03:40:56;0.60;;;0.40;;
60454;SDS011;54989;53.398;6.564;2022-09-27T03:43:24;0.32;;;0.32;;
60454;SDS011;54989;53.398;6.564;2022-09-27T03:45:56;0.40;;;0.35;;
60454;SDS011;54989;53.398;6.564;2022-09-27T03:48:24;0.50;;;0.40;;
60454;SDS011;54989;53.398;6.564;2022-09-27T03:50:53;0.60;;;0.40;;
60454;SDS011;54989;53.398;6.564;2022-09-27T03:53:21;2.33;;;0.63;;
60454;SDS011;54989;53.398;6.564;2022-09-27T03:55:48;0.50;;;0.35;;
60454;SDS011;54989;53.398;6.564;2022-09-27T03:58:16;0.63;;;0.40;;
60454;SDS011;54989;53.398;6.564;2022-09-27T04:00:44;0.50;;;0.35;;
60454;SDS011;54989;53.398;6.564;2022-09-27T04:03:12;0.70;;;0.52;;
60454;SDS011;54989;53.398;6.564;2022-09-27T04:06:12;0.60;;;0.45;;
60454;SDS011;54989;53.398;6.564;2022-09-27T04:08:42;0.65;;;0.35;;
60454;SDS011;54989;53.398;6.564;2022-09-27T04:11:10;0.65;;;0.35;;
60454;SDS011;54989;53.398;6.564;2022-09-27T04:13:40;1.08;;;0.50;;
60454;SDS011;54989;53.398;6.564;2022-09-27T04:16:07;0.52;;;0.43;;
60454;SDS011;54989;53.398;6.564;2022-09-27T04:19:07;0.20;;;0.20;;
60454;SDS011;54989;53.398;6.564;2022-09-27T04:22:02;0.73;;;0.43;;
60454;SDS011;54989;53.398;6.564;2022-09-27T04:24:29;1.15;;;0.60;;
60454;SDS011;54989;53.398;6.564;2022-09-27T04:27:14;1.50;;;0.60;;
60454;SDS011;54989;53.398;6.564;2022-09-27T04:29:43;0.93;;;0.45;;
60454;SDS011;54989;53.398;6.564;2022-09-27T04:32:31;0.50;;;0.40;;
60454;SDS011;54989;53.398;6.564;2022-09-27T04:35:17;0.93;;;0.40;;
60454;SDS011;54989;53.398;6.564;2022-09-27T04:38:03;0.95;;;0.50;;
60454;SDS011;54989;53.398;6.564;2022-09-27T04:40:32;0.60;;;0.50;;
60454;SDS011;54989;53.398;6.564;2022-09-27T04:43:01;0.98;;;0.45;;
60454;SDS011;54989;53.398;6.564;2022-09-27T04:45:30;1.10;;;0.47;;
60454;SDS011;54989;53.398;6.564;2022-09-27T04:47:57;0.68;;;0.40;;
60454;SDS011;54989;53.398;6.564;2022-09-27T04:50:25;0.88;;;0.60;;
60454;SDS011;54989;53.398;6.564;2022-09-27T04:53:00;0.35;;;0.35;;
60454;SDS011;54989;53.398;6.564;2022-09-27T04:55:28;0.50;;;0.43;;
60454;SDS011;54989;53.398;6.564;2022-09-27T04:57:55;0.55;;;0.47;;
60454;SDS011;54989;53.398;6.564;2022-09-27T05:00:22;0.45;;;0.43;;
60454;SDS011;54989;53.398;6.564;2022-09-27T05:02:56;0.30;;;0.30;;
60454;SDS011;54989;53.398;6.564;2022-09-27T05:05:40;0.75;;;0.50;;
60454;SDS011;54989;53.398;6.564;2022-09-27T05:08:07;0.95;;;0.57;;
60454;SDS011;54989;53.398;6.564;2022-09-27T05:10:55;0.60;;;0.38;;
60454;SDS011;54989;53.398;6.564;2022-09-27T05:13:22;0.40;;;0.30;;
60454;SDS011;54989;53.398;6.564;2022-09-27T05:15:49;0.45;;;0.45;;
60454;SDS011;54989;53.398;6.564;2022-09-27T05:18:37;0.47;;;0.40;;
60454;SDS011;54989;53.398;6.564;2022-09-27T05:21:39;0.47;;;0.40;;
60454;SDS011;54989;53.398;6.564;2022-09-27T05:24:06;0.43;;;0.40;;
60454;SDS011;54989;53.398;6.564;2022-09-27T05:26:34;0.52;;;0.40;;
60454;SDS011;54989;53.398;6.564;2022-09-27T05:29:03;1.60;;;0.63;;
60454;SDS011;54989;53.398;6.564;2022-09-27T05:31:30;1.40;;;0.50;;
60454;SDS011;54989;53.398;6.564;2022-09-27T05:33:57;0.43;;;0.40;;
60454;SDS011;54989;53.398;6.564;2022-09-27T05:36:35;0.65;;;0.50;;
60454;SDS011;54989;53.398;6.564;2022-09-27T05:39:03;1.05;;;0.55;;
60454;SDS011;54989;53.398;6.564;2022-09-27T05:41:30;0.88;;;0.50;;
60454;SDS011;54989;53.398;6.564;2022-09-27T05:43:58;1.13;;;0.40;;
60454;SDS011;54989;53.398;6.564;2022-09-27T05:46:27;1.50;;;0.55;;
60454;SDS011;54989;53.398;6.564;2022-09-27T05:48:54;1.23;;;0.60;;
60454;SDS011;54989;53.398;6.564;2022-09-27T05:51:21;0.85;;;0.40;;
60454;SDS011;54989;53.398;6.564;2022-09-27T05:53:49;0.60;;;0.47;;
60454;SDS011;54989;53.398;6.564;2022-09-27T05:56:24;0.50;;;0.30;;
60454;SDS011;54989;53.398;6.564;2022-09-27T05:59:11;0.45;;;0.32;;
60454;SDS011;54989;53.398;6.564;2022-09-27T06:01:58;0.95;;;0.57;;
60454;SDS011;54989;53.398;6.564;2022-09-27T06:04:46;0.70;;;0.52;;
60454;SDS011;54989;53.398;6.564;2022-09-27T06:07:42;0.50;;;0.50;;
60454;SDS011;54989;53.398;6.564;2022-09-27T06:10:17;0.57;;;0.35;;
60454;SDS011;54989;53.398;6.564;2022-09-27T06:12:46;0.88;;;0.43;;
60454;SDS011;54989;53.398;6.564;2022-09-27T06:15:30;1.13;;;0.50;;
60454;SDS011;54989;53.398;6.564;2022-09-27T06:18:06;0.57;;;0.50;;
60454;SDS011;54989;53.398;6.564;2022-09-27T06:20:36;0.40;;;0.30;;
60454;SDS011;54989;53.398;6.564;2022-09-27T06:25:34;0.60;;;0.38;;
60454;SDS011;54989;53.398;6.564;2022-09-27T06:28:11;0.50;;;0.50;;
60454;SDS011;54989;53.398;6.564;2022-09-27T06:30:42;0.82;;;0.50;;
60454;SDS011;54989;53.398;6.564;2022-09-27T06:33:34;1.45;;;0.60;;
60454;SDS011;54989;53.398;6.564;2022-09-27T06:36:03;1.10;;;0.50;;
60454;SDS011;54989;53.398;6.564;2022-09-27T06:38:34;0.40;;;0.40;;
60454;SDS011;54989;53.398;6.564;2022-09-27T06:41:14;0.73;;;0.45;;
60454;SDS011;54989;53.398;6.564;2022-09-27T06:43:58;0.50;;;0.30;;
60454;SDS011;54989;53.398;6.564;2022-09-27T06:46:45;0.50;;;0.50;;
60454;SDS011;54989;53.398;6.564;2022-09-27T06:49:21;0.52;;;0.40;;
60454;SDS011;54989;53.398;6.564;2022-09-27T06:51:51;0.50;;;0.45;;
60454;SDS011;54989;53.398;6.564;2022-09-27T06:54:21;0.80;;;0.50;;
60454;SDS011;54989;53.398;6.564;2022-09-27T06:56:48;1.38;;;0.52;;
60454;SDS011;54989;53.398;6.564;2022-09-27T06:59:16;1.52;;;0.55;;
60454;SDS011;54989;53.398;6.564;2022-09-27T07:02:20;1.42;;;0.40;;
60454;SDS011;54989;53.398;6.564;2022-09-27T07:05:06;0.80;;;0.50;;
60454;SDS011;54989;53.398;6.564;2022-09-27T07:07:56;0.90;;;0.50;;
60454;SDS011;54989;53.398;6.564;2022-09-27T07:10:24;1.03;;;0.47;;
60454;SDS011;54989;53.398;6.564;2022-09-27T07:12:53;1.02;;;0.60;;
60454;SDS011;54989;53.398;6.564;2022-09-27T07:15:23;0.40;;;0.40;;
60454;SDS011;54989;53.398;6.564;2022-09-27T07:17:56;0.95;;;0.50;;
60454;SDS011;54989;53.398;6.564;2022-09-27T07:20:26;0.22;;;0.20;;
60454;SDS011;54989;53.398;6.564;2022-09-27T07:22:57;0.52;;;0.30;;
60454;SDS011;54989;53.398;6.564;2022-09-27T07:25:25;0.95;;;0.60;;
60454;SDS011;54989;53.398;6.564;2022-09-27T07:27:53;0.45;;;0.40;;
60454;SDS011;54989;53.398;6.564;2022-09-27T07:30:20;2.72;;;0.93;;
60454;SDS011;54989;53.398;6.564;2022-09-27T07:32:48;2.90;;;2.60;;
60454;SDS011;54989;53.398;6.564;2022-09-27T07:35:16;2.67;;;2.47;;
60454;SDS011;54989;53.398;6.564;2022-09-27T07:37:43;3.20;;;1.77;;
60454;SDS011;54989;53.398;6.564;2022-09-27T07:40:12;1.85;;;1.75;;
60454;SDS011;54989;53.398;6.564;2022-09-27T07:42:40;1.60;;;1.50;;
60454;SDS011;54989;53.398;6.564;2022-09-27T07:45:07;1.83;;;1.73;;
60454;SDS011;54989;53.398;6.564;2022-09-27T07:47:54;3.03;;;2.53;;
60454;SDS011;54989;53.398;6.564;2022-09-27T07:50:47;4.05;;;2.50;;
60454;SDS011;54989;53.398;6.564;2022-09-27T07:53:32;4.45;;;2.28;;
60454;SDS011;54989;53.398;6.564;2022-09-27T07:56:29;2.13;;;1.92;;
60454;SDS011;54989;53.398;6.564;2022-09-27T07:58:56;2.47;;;2.15;;
60454;SDS011;54989;53.398;6.564;2022-09-27T08:01:24;3.22;;;2.08;;
60454;SDS011;54989;53.398;6.564;2022-09-27T08:03:52;2.10;;;2.00;;
60454;SDS011;54989;53.398;6.564;2022-09-27T08:06:20;4.07;;;1.90;;
60454;SDS011;54989;53.398;6.564;2022-09-27T08:08:48;1.95;;;1.73;;
60454;SDS011;54989;53.398;6.564;2022-09-27T08:11:16;1.80;;;1.70;;
60454;SDS011;54989;53.398;6.564;2022-09-27T08:16:21;1.70;;;1.60;;
60454;SDS011;54989;53.398;6.564;2022-09-27T08:19:18;2.13;;;1.50;;
60454;SDS011;54989;53.398;6.564;2022-09-27T08:21:45;1.42;;;1.25;;
60454;SDS011;54989;53.398;6.564;2022-09-27T08:24:22;1.63;;;1.50;;
60454;SDS011;54989;53.398;6.564;2022-09-27T08:27:00;1.33;;;1.23;;
60454;SDS011;54989;53.398;6.564;2022-09-27T08:30:00;1.92;;;1.40;;
60454;SDS011;54989;53.398;6.564;2022-09-27T08:32:29;1.83;;;1.38;;
60454;SDS011;54989;53.398;6.564;2022-09-27T08:35:00;1.45;;;1.35;;
60454;SDS011;54989;53.398;6.564;2022-09-27T08:37:27;1.08;;;1.08;;
60454;SDS011;54989;53.398;6.564;2022-09-27T08:39:55;1.52;;;1.20;;
60454;SDS011;54989;53.398;6.564;2022-09-27T08:42:31;1.10;;;1.00;;
60454;SDS011;54989;53.398;6.564;2022-09-27T08:55:51;1.45;;;1.00;;
60454;SDS011;54989;53.398;6.564;2022-09-27T08:58:27;2.90;;;1.05;;
60454;SDS011;54989;53.398;6.564;2022-09-27T09:01:04;2.80;;;1.30;;
60454;SDS011;54989;53.398;6.564;2022-09-27T09:03:47;2.13;;;1.10;;
60454;SDS011;54989;53.398;6.564;2022-09-27T09:06:22;5.57;;;1.20;;
60454;SDS011;54989;53.398;6.564;2022-09-27T09:34:47;1.70;;;0.85;;
60454;SDS011;54989;53.398;6.564;2022-09-27T09:39:57;1.75;;;0.80;;
60454;SDS011;54989;53.398;6.564;2022-09-27T09:43:33;2.20;;;0.90;;
60454;SDS011;54989;53.398;6.564;2022-09-27T09:45:47;1.13;;;0.70;;
60454;SDS011;54989;53.398;6.564;2022-09-27T09:50:53;0.90;;;0.70;;
60454;SDS011;54989;53.398;6.564;2022-09-27T09:55:59;0.85;;;0.60;;
60454;SDS011;54989;53.398;6.564;2022-09-27T09:58:35;1.33;;;0.80;;
60454;SDS011;54989;53.398;6.564;2022-09-27T10:03:58;0.93;;;0.68;;
60454;SDS011;54989;53.398;6.564;2022-09-27T10:06:26;1.00;;;0.57;;
60454;SDS011;54989;53.398;6.564;2022-09-27T10:11:42;1.80;;;0.80;;
60454;SDS011;54989;53.398;6.564;2022-09-27T10:14:17;1.10;;;0.60;;
60454;SDS011;54989;53.398;6.564;2022-09-27T10:16:52;1.45;;;0.82;;
60454;SDS011;54989;53.398;6.564;2022-09-27T10:19:29;3.15;;;0.60;;
60454;SDS011;54989;53.398;6.564;2022-09-27T10:22:02;0.60;;;0.60;;
60454;SDS011;54989;53.398;6.564;2022-09-27T10:24:57;1.13;;;0.50;;
60454;SDS011;54989;53.398;6.564;2022-09-27T10:27:46;0.85;;;0.60;;
60454;SDS011;54989;53.398;6.564;2022-09-27T10:30:27;1.40;;;0.75;;
60454;SDS011;54989;53.398;6.564;2022-09-27T10:33:15;2.38;;;0.90;;
60454;SDS011;54989;53.398;6.564;2022-09-27T10:35:49;1.33;;;0.80;;
60454;SDS011;54989;53.398;6.564;2022-09-27T10:38:24;0.60;;;0.60;;
60454;SDS011;54989;53.398;6.564;2022-09-27T10:44:23;1.23;;;0.57;;
60454;SDS011;54989;53.398;6.564;2022-09-27T10:47:05;0.70;;;0.65;;
60454;SDS011;54989;53.398;6.564;2022-09-27T10:49:45;0.50;;;0.50;;
60454;SDS011;54989;53.398;6.564;2022-09-27T10:52:31;0.70;;;0.60;;
60454;SDS011;54989;53.398;6.564;2022-09-27T10:55:21;1.73;;;0.63;;
60454;SDS011;54989;53.398;6.564;2022-09-27T10:57:53;1.35;;;0.43;;
60454;SDS011;54989;53.398;6.564;2022-09-27T11:00:30;1.70;;;0.50;;
60454;SDS011;54989;53.398;6.564;2022-09-27T11:03:02;1.00;;;0.50;;
60454;SDS011;54989;53.398;6.564;2022-09-27T11:05:35;1.25;;;0.63;;
60454;SDS011;54989;53.398;6.564;2022-09-27T11:13:28;0.65;;;0.45;;
60454;SDS011;54989;53.398;6.564;2022-09-27T11:18:45;1.70;;;0.47;;
60454;SDS011;54989;53.398;6.564;2022-09-27T11:33:06;0.85;;;0.40;;
60454;SDS011;54989;53.398;6.564;2022-09-27T11:41:34;1.70;;;0.50;;
60454;SDS011;54989;53.398;6.564;2022-09-27T11:47:35;0.40;;;0.40;;
60454;SDS011;54989;53.398;6.564;2022-09-27T11:50:15;0.82;;;0.43;;
60454;SDS011;54989;53.398;6.564;2022-09-27T11:53:29;0.73;;;0.47;;
60454;SDS011;54989;53.398;6.564;2022-09-27T11:58:57;0.88;;;0.50;;
60454;SDS011;54989;53.398;6.564;2022-09-27T12:01:32;0.52;;;0.30;;
60454;SDS011;54989;53.398;6.564;2022-09-27T12:09:35;1.05;;;0.60;;
60454;SDS011;54989;53.398;6.564;2022-09-27T12:12:13;0.60;;;0.57;;
60454;SDS011;54989;53.398;6.564;2022-09-27T12:14:51;0.50;;;0.43;;
60454;SDS011;54989;53.398;6.564;2022-09-27T12:17:23;0.63;;;0.50;;
60454;SDS011;54989;53.398;6.564;2022-09-27T12:19:57;1.25;;;0.40;;
60454;SDS011;54989;53.398;6.564;2022-09-27T12:22:53;1.17;;;0.45;;
60454;SDS011;54989;53.398;6.564;2022-09-27T12:25:45;0.38;;;0.28;;
60454;SDS011;54989;53.398;6.564;2022-09-27T12:28:43;1.83;;;0.60;;
60454;SDS011;54989;53.398;6.564;2022-09-27T12:31:20;1.60;;;0.60;;
60454;SDS011;54989;53.398;6.564;2022-09-27T12:33:58;0.65;;;0.47;;
60454;SDS011;54989;53.398;6.564;2022-09-27T12:36:33;0.50;;;0.50;;
60454;SDS011;54989;53.398;6.564;2022-09-27T12:39:21;1.35;;;0.35;;
60454;SDS011;54989;53.398;6.564;2022-09-27T12:42:05;0.20;;;0.20;;
60454;SDS011;54989;53.398;6.564;2022-09-27T12:44:43;0.40;;;0.40;;
60454;SDS011;54989;53.398;6.564;2022-09-27T12:53:14;0.70;;;0.30;;
60454;SDS011;54989;53.398;6.564;2022-09-27T12:56:06;1.45;;;0.60;;
60454;SDS011;54989;53.398;6.564;2022-09-27T13:09:54;1.17;;;0.50;;
60454;SDS011;54989;53.398;6.564;2022-09-27T13:12:35;0.70;;;0.40;;
60454;SDS011;54989;53.398;6.564;2022-09-27T13:17:54;0.43;;;0.43;;
60454;SDS011;54989;53.398;6.564;2022-09-27T13:26:00;0.35;;;0.35;;
60454;SDS011;54989;53.398;6.564;2022-09-27T13:28:34;0.35;;;0.30;;
60454;SDS011;54989;53.398;6.564;2022-09-27T13:34:42;0.45;;;0.35;;
60454;SDS011;54989;53.398;6.564;2022-09-27T13:40:23;0.50;;;0.30;;
60454;SDS011;54989;53.398;6.564;2022-09-27T13:47:43;0.50;;;0.40;;
60454;SDS011;54989;53.398;6.564;2022-09-27T13:49:43;0.45;;;0.20;;
60454;SDS011;54989;53.398;6.564;2022-09-27T13:52:38;0.70;;;0.50;;
60454;SDS011;54989;53.398;6.564;2022-09-27T13:58:01;0.73;;;0.50;;
60454;SDS011;54989;53.398;6.564;2022-09-27T14:00:40;0.70;;;0.30;;
60454;SDS011;54989;53.398;6.564;2022-09-27T14:05:41;1.10;;;0.38;;
60454;SDS011;54989;53.398;6.564;2022-09-27T14:13:37;0.95;;;0.30;;
60454;SDS011;54989;53.398;6.564;2022-09-27T14:16:13;0.75;;;0.45;;
60454;SDS011;54989;53.398;6.564;2022-09-27T14:18:47;1.38;;;0.50;;
60454;SDS011;54989;53.398;6.564;2022-09-27T14:21:37;0.40;;;0.40;;
60454;SDS011;54989;53.398;6.564;2022-09-27T14:24:29;1.02;;;0.40;;
60454;SDS011;54989;53.398;6.564;2022-09-27T14:30:13;1.10;;;0.50;;
60454;SDS011;54989;53.398;6.564;2022-09-27T14:32:50;1.80;;;0.38;;
60454;SDS011;54989;53.398;6.564;2022-09-27T14:35:36;0.63;;;0.35;;
60454;SDS011;54989;53.398;6.564;2022-09-27T14:38:34;0.63;;;0.30;;
60454;SDS011;54989;53.398;6.564;2022-09-27T14:41:12;0.20;;;0.20;;
60454;SDS011;54989;53.398;6.564;2022-09-27T14:43:44;0.63;;;0.30;;
60454;SDS011;54989;53.398;6.564;2022-09-27T14:46:26;0.43;;;0.40;;
60454;SDS011;54989;53.398;6.564;2022-09-27T14:48:55;0.52;;;0.30;;
60454;SDS011;54989;53.398;6.564;2022-09-27T14:51:27;0.22;;;0.22;;
60454;SDS011;54989;53.398;6.564;2022-09-27T14:53:57;0.28;;;0.28;;
60454;SDS011;54989;53.398;6.564;2022-09-27T14:56:31;0.40;;;0.30;;
60454;SDS011;54989;53.398;6.564;2022-09-27T14:59:03;0.45;;;0.30;;
60454;SDS011;54989;53.398;6.564;2022-09-27T15:01:38;0.20;;;0.20;;
60454;SDS011;54989;53.398;6.564;2022-09-27T15:04:13;0.30;;;0.30;;
60454;SDS011;54989;53.398;6.564;2022-09-27T15:06:41;1.00;;;0.30;;
60454;SDS011;54989;53.398;6.564;2022-09-27T15:09:13;2.03;;;0.60;;
60454;SDS011;54989;53.398;6.564;2022-09-27T15:11:43;1.25;;;0.50;;
60454;SDS011;54989;53.398;6.564;2022-09-27T15:14:14;0.45;;;0.40;;
60454;SDS011;54989;53.398;6.564;2022-09-27T15:16:43;0.47;;;0.30;;
60454;SDS011;54989;53.398;6.564;2022-09-27T15:19:16;0.30;;;0.25;;
60454;SDS011;54989;53.398;6.564;2022-09-27T15:21:44;0.20;;;0.20;;
60454;SDS011;54989;53.398;6.564;2022-09-27T15:27:21;1.55;;;0.40;;
60454;SDS011;54989;53.398;6.564;2022-09-27T15:29:52;5.88;;;1.27;;
60454;SDS011;54989;53.398;6.564;2022-09-27T15:32:25;2.45;;;0.57;;
60454;SDS011;54989;53.398;6.564;2022-09-27T15:34:54;3.58;;;1.13;;
60454;SDS011;54989;53.398;6.564;2022-09-27T15:39:54;3.13;;;1.10;;
60454;SDS011;54989;53.398;6.564;2022-09-27T15:42:38;3.67;;;1.23;;
60454;SDS011;54989;53.398;6.564;2022-09-27T15:45:33;1.40;;;1.30;;
60454;SDS011;54989;53.398;6.564;2022-09-27T15:48:15;3.30;;;0.70;;
60454;SDS011;54989;53.398;6.564;2022-09-27T15:50:43;1.92;;;0.93;;
60454;SDS011;54989;53.398;6.564;2022-09-27T15:53:39;2.45;;;1.00;;
60454;SDS011;54989;53.398;6.564;2022-09-27T15:56:00;1.58;;;0.80;;
60454;SDS011;54989;53.398;6.564;2022-09-27T15:58:28;0.85;;;0.85;;
60454;SDS011;54989;53.398;6.564;2022-09-27T16:00:58;1.40;;;0.75;;
60454;SDS011;54989;53.398;6.564;2022-09-27T16:03:31;2.78;;;0.93;;
60454;SDS011;54989;53.398;6.564;2022-09-27T16:06:00;0.68;;;0.68;;
60454;SDS011;54989;53.398;6.564;2022-09-27T16:08:28;1.77;;;0.90;;
60454;SDS011;54989;53.398;6.564;2022-09-27T16:10:56;0.75;;;0.75;;
60454;SDS011;54989;53.398;6.564;2022-09-27T16:13:25;1.60;;;0.80;;
60454;SDS011;54989;53.398;6.564;2022-09-27T16:15:58;3.22;;;0.90;;
60454;SDS011;54989;53.398;6.564;2022-09-27T16:18:27;2.83;;;0.90;;
60454;SDS011;54989;53.398;6.564;2022-09-27T16:20:59;1.40;;;0.90;;
60454;SDS011;54989;53.398;6.564;2022-09-27T16:23:26;1.75;;;0.80;;
60454;SDS011;54989;53.398;6.564;2022-09-27T16:25:54;1.52;;;0.65;;
60454;SDS011;54989;53.398;6.564;2022-09-27T16:28:21;3.45;;;1.05;;
60454;SDS011;54989;53.398;6.564;2022-09-27T16:30:48;2.53;;;0.73;;
60454;SDS011;54989;53.398;6.564;2022-09-27T16:33:16;2.00;;;0.70;;
60454;SDS011;54989;53.398;6.564;2022-09-27T16:35:43;2.15;;;0.63;;
60454;SDS011;54989;53.398;6.564;2022-09-27T16:38:11;0.95;;;0.70;;
60454;SDS011;54989;53.398;6.564;2022-09-27T16:40:38;1.90;;;0.75;;
60454;SDS011;54989;53.398;6.564;2022-09-27T16:43:05;1.42;;;0.60;;
60454;SDS011;54989;53.398;6.564;2022-09-27T16:45:34;0.60;;;0.60;;
60454;SDS011;54989;53.398;6.564;2022-09-27T16:48:02;1.10;;;0.77;;
60454;SDS011;54989;53.398;6.564;2022-09-27T16:50:29;2.28;;;0.70;;
60454;SDS011;54989;53.398;6.564;2022-09-27T16:53:15;1.30;;;0.60;;
60454;SDS011;54989;53.398;6.564;2022-09-27T16:55:43;1.08;;;0.60;;
60454;SDS011;54989;53.398;6.564;2022-09-27T16:58:10;0.52;;;0.50;;
60454;SDS011;54989;53.398;6.564;2022-09-27T17:00:38;0.93;;;0.50;;
60454;SDS011;54989;53.398;6.564;2022-09-27T17:03:07;1.30;;;0.75;;
60454;SDS011;54989;53.398;6.564;2022-09-27T17:05:35;0.70;;;0.60;;
60454;SDS011;54989;53.398;6.564;2022-09-27T17:08:03;2.35;;;0.50;;
60454;SDS011;54989;53.398;6.564;2022-09-27T17:10:31;0.40;;;0.40;;
60454;SDS011;54989;53.398;6.564;2022-09-27T17:12:58;2.15;;;0.57;;
60454;SDS011;54989;53.398;6.564;2022-09-27T17:15:27;0.82;;;0.60;;
60454;SDS011;54989;53.398;6.564;2022-09-27T17:17:55;1.30;;;0.65;;
60454;SDS011;54989;53.398;6.564;2022-09-27T17:20:22;0.57;;;0.57;;
60454;SDS011;54989;53.398;6.564;2022-09-27T17:22:49;1.17;;;0.63;;
60454;SDS011;54989;53.398;6.564;2022-09-27T17:25:17;1.38;;;0.60;;
60454;SDS011;54989;53.398;6.564;2022-09-27T17:27:44;0.70;;;0.63;;
60454;SDS011;54989;53.398;6.564;2022-09-27T17:30:11;3.10;;;0.50;;
60454;SDS011;54989;53.398;6.564;2022-09-27T17:32:39;0.93;;;0.50;;
60454;SDS011;54989;53.398;6.564;2022-09-27T17:35:10;0.70;;;0.57;;
60454;SDS011;54989;53.398;6.564;2022-09-27T17:37:37;1.40;;;0.60;;
60454;SDS011;54989;53.398;6.564;2022-09-27T17:40:05;0.65;;;0.40;;
60454;SDS011;54989;53.398;6.564;2022-09-27T17:42:32;0.80;;;0.43;;
60454;SDS011;54989;53.398;6.564;2022-09-27T17:45:02;0.93;;;0.50;;
60454;SDS011;54989;53.398;6.564;2022-09-27T17:47:30;0.55;;;0.40;;
60454;SDS011;54989;53.398;6.564;2022-09-27T17:50:16;0.70;;;0.60;;
60454;SDS011;54989;53.398;6.564;2022-09-27T17:52:56;1.58;;;0.70;;
60454;SDS011;54989;53.398;6.564;2022-09-27T17:55:24;2.00;;;0.68;;
60454;SDS011;54989;53.398;6.564;2022-09-27T17:57:53;0.43;;;0.43;;
60454;SDS011;54989;53.398;6.564;2022-09-27T18:00:20;0.40;;;0.40;;
60454;SDS011;54989;53.398;6.564;2022-09-27T18:02:49;1.30;;;0.52;;
60454;SDS011;54989;53.398;6.564;2022-09-27T18:05:19;1.75;;;0.60;;
60454;SDS011;54989;53.398;6.564;2022-09-27T18:07:47;0.60;;;0.60;;
60454;SDS011;54989;53.398;6.564;2022-09-27T18:10:15;0.47;;;0.47;;
60454;SDS011;54989;53.398;6.564;2022-09-27T18:12:44;1.00;;;0.50;;
60454;SDS011;54989;53.398;6.564;2022-09-27T18:15:12;2.00;;;0.57;;
60454;SDS011;54989;53.398;6.564;2022-09-27T18:20:19;0.70;;;0.35;;
60454;SDS011;54989;53.398;6.564;2022-09-27T18:22:50;0.50;;;0.50;;
60454;SDS011;54989;53.398;6.564;2022-09-27T18:25:19;1.85;;;0.60;;
60454;SDS011;54989;53.398;6.564;2022-09-27T18:27:47;2.05;;;0.65;;
60454;SDS011;54989;53.398;6.564;2022-09-27T18:30:17;1.42;;;0.68;;
60454;SDS011;54989;53.398;6.564;2022-09-27T18:32:45;0.40;;;0.40;;
60454;SDS011;54989;53.398;6.564;2022-09-27T18:35:16;0.98;;;0.50;;
60454;SDS011;54989;53.398;6.564;2022-09-27T18:37:45;1.17;;;0.45;;
60454;SDS011;54989;53.398;6.564;2022-09-27T18:40:13;0.60;;;0.50;;
60454;SDS011;54989;53.398;6.564;2022-09-27T18:43:02;0.55;;;0.40;;
60454;SDS011;54989;53.398;6.564;2022-09-27T18:45:33;1.10;;;0.40;;
60454;SDS011;54989;53.398;6.564;2022-09-27T18:48:03;1.67;;;0.55;;
60454;SDS011;54989;53.398;6.564;2022-09-27T18:50:35;3.13;;;0.50;;
60454;SDS011;54989;53.398;6.564;2022-09-27T18:53:03;0.88;;;0.60;;
60454;SDS011;54989;53.398;6.564;2022-09-27T18:55:34;1.10;;;0.32;;
60454;SDS011;54989;53.398;6.564;2022-09-27T18:58:04;0.90;;;0.40;;